sensor_id;sensor_type;location;lat;lon;timestamp;pressure;altitude;pressure_sealevel;temperature;humidity
43115;BME280;28727;50.068;14.452;2023-06-10T00:01:40;98967.09;;;18.38;85.23
43115;BME280;28727;50.068;14.452;2023-06-10T00:04:14;98973.53;;;18.37;84.76
43115;BME280;28727;50.068;14.452;2023-06-10T00:06:47;98971.97;;;18.29;85.60
43115;BME280;28727;50.068;14.452;2023-06-10T00:09:21;98974.06;;;18.27;86.04
43115;BME280;28727;50.068;14.452;2023-06-10T00:11:53;98967.88;;;18.27;85.89
43115;BME280;28727;50.068;14.452;2023-06-10T00:14:24;98979.66;;;18.26;85.66
43115;BME280;28727;50.068;14.452;2023-06-10T00:16:56;98976.81;;;18.21;85.96
43115;BME280;28727;50.068;14.452;2023-06-10T00:19:28;98981.59;;;18.19;85.80
43115;BME280;28727;50.068;14.452;2023-06-10T00:22:01;98981.81;;;18.17;85.65
43115;BME280;28727;50.068;14.452;2023-06-10T00:24:34;98980.19;;;18.16;86.39
43115;BME280;28727;50.068;14.452;2023-06-10T00:27:10;98979.59;;;18.14;86.23
43115;BME280;28727;50.068;14.452;2023-06-10T00:29:42;98975.50;;;18.12;86.36
43115;BME280;28727;50.068;14.452;2023-06-10T00:32:14;98974.91;;;18.10;86.69
43115;BME280;28727;50.068;14.452;2023-06-10T00:34:46;98978.41;;;18.10;86.49
43115;BME280;28727;50.068;14.452;2023-06-10T00:37:17;98977.03;;;18.08;86.38
43115;BME280;28727;50.068;14.452;2023-06-10T00:39:49;98981.75;;;18.06;86.25
43115;BME280;28727;50.068;14.452;2023-06-10T00:42:21;98981.16;;;18.04;86.36
43115;BME280;28727;50.068;14.452;2023-06-10T00:44:55;98983.28;;;18.02;86.60
43115;BME280;28727;50.068;14.452;2023-06-10T00:47:28;98975.69;;;17.98;86.40
43115;BME280;28727;50.068;14.452;2023-06-10T00:50:00;98981.50;;;17.95;86.95
43115;BME280;28727;50.068;14.452;2023-06-10T00:52:35;98990.56;;;17.94;86.46
43115;BME280;28727;50.068;14.452;2023-06-10T00:55:07;98979.84;;;17.94;86.35
43115;BME280;28727;50.068;14.452;2023-06-10T00:57:42;98980.28;;;17.91;86.01
43115;BME280;28727;50.068;14.452;2023-06-10T01:00:16;98981.56;;;17.89;86.08
43115;BME280;28727;50.068;14.452;2023-06-10T01:02:50;98979.59;;;17.84;86.58
43115;BME280;28727;50.068;14.452;2023-06-10T01:05:24;98982.47;;;17.83;86.61
43115;BME280;28727;50.068;14.452;2023-06-10T01:08:01;98988.25;;;17.80;86.82
43115;BME280;28727;50.068;14.452;2023-06-10T01:10:57;98985.81;;;17.78;86.95
43115;BME280;28727;50.068;14.452;2023-06-10T01:13:38;98993.25;;;17.76;87.55
43115;BME280;28727;50.068;14.452;2023-06-10T01:16:15;98992.19;;;17.77;87.54
43115;BME280;28727;50.068;14.452;2023-06-10T01:18:47;98999.41;;;17.77;87.36
43115;BME280;28727;50.068;14.452;2023-06-10T01:21:22;99005.56;;;17.77;87.57
43115;BME280;28727;50.068;14.452;2023-06-10T01:23:58;99011.34;;;17.74;87.43
43115;BME280;28727;50.068;14.452;2023-06-10T01:26:32;99013.44;;;17.72;87.75
43115;BME280;28727;50.068;14.452;2023-06-10T01:29:24;99013.88;;;17.69;87.46
43115;BME280;28727;50.068;14.452;2023-06-10T01:32:16;99015.94;;;17.67;87.54
43115;BME280;28727;50.068;14.452;2023-06-10T01:34:50;99017.00;;;17.66;87.11
43115;BME280;28727;50.068;14.452;2023-06-10T01:37:28;99010.22;;;17.64;87.43
43115;BME280;28727;50.068;14.452;2023-06-10T01:40:02;99012.28;;;17.62;87.73
43115;BME280;28727;50.068;14.452;2023-06-10T01:42:39;99017.44;;;17.63;87.39
43115;BME280;28727;50.068;14.452;2023-06-10T01:45:10;99014.97;;;17.62;87.22
43115;BME280;28727;50.068;14.452;2023-06-10T01:47:42;99015.41;;;17.58;87.32
43115;BME280;28727;50.068;14.452;2023-06-10T01:50:14;99019.91;;;17.58;87.08
43115;BME280;28727;50.068;14.452;2023-06-10T01:52:48;99023.84;;;17.55;87.10
43115;BME280;28727;50.068;14.452;2023-06-10T01:55:20;99024.09;;;17.54;87.22
43115;BME280;28727;50.068;14.452;2023-06-10T01:57:51;99025.13;;;17.53;86.98
43115;BME280;28727;50.068;14.452;2023-06-10T02:00:23;99025.53;;;17.50;86.66
43115;BME280;28727;50.068;14.452;2023-06-10T02:02:55;99031.13;;;17.48;86.50
43115;BME280;28727;50.068;14.452;2023-06-10T02:05:28;99024.56;;;17.44;86.49
43115;BME280;28727;50.068;14.452;2023-06-10T02:08:00;99032.63;;;17.38;86.94
43115;BME280;28727;50.068;14.452;2023-06-10T02:10:32;99028.78;;;17.34;86.84
43115;BME280;28727;50.068;14.452;2023-06-10T02:13:04;99034.13;;;17.34;87.32
43115;BME280;28727;50.068;14.452;2023-06-10T02:15:39;99032.50;;;17.33;87.55
43115;BME280;28727;50.068;14.452;2023-06-10T02:18:10;99032.28;;;17.34;87.21
43115;BME280;28727;50.068;14.452;2023-06-10T02:20:43;99030.88;;;17.32;87.10
43115;BME280;28727;50.068;14.452;2023-06-10T02:23:17;99041.78;;;17.30;86.97
43115;BME280;28727;50.068;14.452;2023-06-10T02:25:48;99035.47;;;17.25;87.15
43115;BME280;28727;50.068;14.452;2023-06-10T02:28:22;99041.06;;;17.16;87.05
43115;BME280;28727;50.068;14.452;2023-06-10T02:30:53;99039.47;;;17.09;87.25
43115;BME280;28727;50.068;14.452;2023-06-10T02:33:25;99038.50;;;17.03;87.37
43115;BME280;28727;50.068;14.452;2023-06-10T02:35:58;99038.34;;;16.98;87.58
43115;BME280;28727;50.068;14.452;2023-06-10T02:38:32;99044.13;;;16.95;88.04
43115;BME280;28727;50.068;14.452;2023-06-10T02:41:05;99047.38;;;16.97;88.46
43115;BME280;28727;50.068;14.452;2023-06-10T02:43:37;99043.69;;;16.98;87.89
43115;BME280;28727;50.068;14.452;2023-06-10T02:46:09;99042.84;;;16.98;88.01
43115;BME280;28727;50.068;14.452;2023-06-10T02:48:42;99039.16;;;16.99;87.84
43115;BME280;28727;50.068;14.452;2023-06-10T02:51:23;99050.66;;;16.99;87.76
43115;BME280;28727;50.068;14.452;2023-06-10T02:54:01;99046.34;;;16.98;87.82
43115;BME280;28727;50.068;14.452;2023-06-10T02:56:33;99044.13;;;16.95;87.17
43115;BME280;28727;50.068;14.452;2023-06-10T02:59:07;99040.47;;;16.90;87.75
43115;BME280;28727;50.068;14.452;2023-06-10T03:01:40;99045.81;;;16.90;87.92
43115;BME280;28727;50.068;14.452;2023-06-10T03:04:14;99054.44;;;16.85;87.90
43115;BME280;28727;50.068;14.452;2023-06-10T03:06:54;99048.13;;;16.79;87.95
43115;BME280;28727;50.068;14.452;2023-06-10T03:09:34;99045.28;;;16.74;88.25
43115;BME280;28727;50.068;14.452;2023-06-10T03:12:08;99044.25;;;16.75;88.12
43115;BME280;28727;50.068;14.452;2023-06-10T03:14:45;99053.09;;;16.76;88.30
43115;BME280;28727;50.068;14.452;2023-06-10T03:17:17;99055.38;;;16.72;88.00
43115;BME280;28727;50.068;14.452;2023-06-10T03:19:50;99054.81;;;16.64;88.12
43115;BME280;28727;50.068;14.452;2023-06-10T03:22:22;99054.44;;;16.60;88.88
43115;BME280;28727;50.068;14.452;2023-06-10T03:25:11;99057.09;;;16.60;89.13
43115;BME280;28727;50.068;14.452;2023-06-10T03:27:48;99057.91;;;16.61;88.46
43115;BME280;28727;50.068;14.452;2023-06-10T03:30:23;99050.75;;;16.55;88.93
43115;BME280;28727;50.068;14.452;2023-06-10T03:32:55;99059.53;;;16.55;89.30
43115;BME280;28727;50.068;14.452;2023-06-10T03:35:29;99053.41;;;16.55;89.08
43115;BME280;28727;50.068;14.452;2023-06-10T03:38:04;99065.47;;;16.57;89.35
43115;BME280;28727;50.068;14.452;2023-06-10T03:40:37;99060.56;;;16.61;89.47
43115;BME280;28727;50.068;14.452;2023-06-10T03:43:11;99060.75;;;16.66;89.21
43115;BME280;28727;50.068;14.452;2023-06-10T03:45:43;99062.75;;;16.70;89.04
43115;BME280;28727;50.068;14.452;2023-06-10T03:48:15;99057.22;;;16.72;88.65
43115;BME280;28727;50.068;14.452;2023-06-10T03:50:54;99063.13;;;16.74;88.32
43115;BME280;28727;50.068;14.452;2023-06-10T03:53:26;99070.72;;;16.77;88.16
43115;BME280;28727;50.068;14.452;2023-06-10T03:55:58;99062.53;;;16.78;87.94
43115;BME280;28727;50.068;14.452;2023-06-10T03:58:31;99072.94;;;16.80;88.00
43115;BME280;28727;50.068;14.452;2023-06-10T04:01:03;99056.53;;;16.83;87.77
43115;BME280;28727;50.068;14.452;2023-06-10T04:03:39;99070.03;;;16.88;87.76
43115;BME280;28727;50.068;14.452;2023-06-10T04:06:20;99071.22;;;16.92;87.55
43115;BME280;28727;50.068;14.452;2023-06-10T04:08:54;99080.22;;;16.98;87.33
43115;BME280;28727;50.068;14.452;2023-06-10T04:11:27;99081.66;;;17.00;87.36
43115;BME280;28727;50.068;14.452;2023-06-10T04:14:01;99084.09;;;17.02;86.80
43115;BME280;28727;50.068;14.452;2023-06-10T04:16:34;99082.22;;;17.02;86.89
43115;BME280;28727;50.068;14.452;2023-06-10T04:19:07;99083.66;;;17.05;86.61
43115;BME280;28727;50.068;14.452;2023-06-10T04:21:39;99090.63;;;17.06;86.65
43115;BME280;28727;50.068;14.452;2023-06-10T04:24:11;99084.03;;;17.08;86.65
43115;BME280;28727;50.068;14.452;2023-06-10T04:26:43;99084.44;;;17.12;86.49
43115;BME280;28727;50.068;14.452;2023-06-10T04:29:17;99086.06;;;17.13;86.52
43115;BME280;28727;50.068;14.452;2023-06-10T04:31:49;99084.38;;;17.18;86.28
43115;BME280;28727;50.068;14.452;2023-06-10T04:34:22;99083.72;;;17.23;85.90
43115;BME280;28727;50.068;14.452;2023-06-10T04:36:54;99091.72;;;17.23;85.87
43115;BME280;28727;50.068;14.452;2023-06-10T04:39:26;99089.28;;;17.22;86.10
43115;BME280;28727;50.068;14.452;2023-06-10T04:42:03;99088.84;;;17.25;86.45
43115;BME280;28727;50.068;14.452;2023-06-10T04:44:35;99092.28;;;17.32;86.50
43115;BME280;28727;50.068;14.452;2023-06-10T04:47:07;99092.28;;;17.32;86.80
43115;BME280;28727;50.068;14.452;2023-06-10T04:49:39;99103.94;;;17.37;86.83
43115;BME280;28727;50.068;14.452;2023-06-10T04:52:11;99098.31;;;17.45;86.91
43115;BME280;28727;50.068;14.452;2023-06-10T04:54:45;99095.75;;;17.57;86.25
43115;BME280;28727;50.068;14.452;2023-06-10T04:57:20;99095.28;;;17.67;85.78
43115;BME280;28727;50.068;14.452;2023-06-10T04:59:54;99094.78;;;17.76;84.63
43115;BME280;28727;50.068;14.452;2023-06-10T05:02:26;99098.47;;;17.75;85.13
43115;BME280;28727;50.068;14.452;2023-06-10T05:04:58;99089.16;;;17.84;85.43
43115;BME280;28727;50.068;14.452;2023-06-10T05:07:30;99095.38;;;17.96;85.10
43115;BME280;28727;50.068;14.452;2023-06-10T05:10:05;99095.69;;;18.07;85.11
43115;BME280;28727;50.068;14.452;2023-06-10T05:12:38;99094.38;;;18.27;83.78
43115;BME280;28727;50.068;14.452;2023-06-10T05:15:10;99088.44;;;18.44;83.24
43115;BME280;28727;50.068;14.452;2023-06-10T05:17:43;99093.16;;;18.78;82.96
43115;BME280;28727;50.068;14.452;2023-06-10T05:20:14;99102.91;;;19.26;81.08
43115;BME280;28727;50.068;14.452;2023-06-10T05:22:46;99106.81;;;19.65;78.77
43115;BME280;28727;50.068;14.452;2023-06-10T05:25:18;99103.28;;;19.99;76.47
43115;BME280;28727;50.068;14.452;2023-06-10T05:27:50;99110.81;;;20.25;75.12
43115;BME280;28727;50.068;14.452;2023-06-10T05:30:23;99107.72;;;20.57;73.83
43115;BME280;28727;50.068;14.452;2023-06-10T05:32:59;99111.19;;;20.85;71.58
43115;BME280;28727;50.068;14.452;2023-06-10T05:35:31;99109.13;;;21.04;68.86
43115;BME280;28727;50.068;14.452;2023-06-10T05:38:03;99109.91;;;21.16;66.42
43115;BME280;28727;50.068;14.452;2023-06-10T05:40:36;99114.56;;;21.09;67.02
43115;BME280;28727;50.068;14.452;2023-06-10T05:43:08;99113.34;;;21.00;67.66
43115;BME280;28727;50.068;14.452;2023-06-10T05:45:41;99115.31;;;21.05;66.32
43115;BME280;28727;50.068;14.452;2023-06-10T05:48:14;99110.88;;;20.82;65.67
43115;BME280;28727;50.068;14.452;2023-06-10T05:50:45;99122.22;;;20.56;65.42
43115;BME280;28727;50.068;14.452;2023-06-10T05:53:19;99125.16;;;20.42;66.46
43115;BME280;28727;50.068;14.452;2023-06-10T05:55:52;99129.72;;;20.30;66.10
43115;BME280;28727;50.068;14.452;2023-06-10T05:58:25;99122.59;;;20.36;67.12
43115;BME280;28727;50.068;14.452;2023-06-10T06:00:57;99126.63;;;20.50;66.77
43115;BME280;28727;50.068;14.452;2023-06-10T06:03:29;99130.88;;;20.74;66.60
43115;BME280;28727;50.068;14.452;2023-06-10T06:06:02;99127.06;;;21.15;64.50
43115;BME280;28727;50.068;14.452;2023-06-10T06:08:34;99122.19;;;21.62;64.46
43115;BME280;28727;50.068;14.452;2023-06-10T06:11:06;99124.38;;;21.82;63.28
43115;BME280;28727;50.068;14.452;2023-06-10T06:13:38;99124.06;;;21.79;61.88
43115;BME280;28727;50.068;14.452;2023-06-10T06:16:10;99124.13;;;21.84;62.97
43115;BME280;28727;50.068;14.452;2023-06-10T06:18:42;99117.69;;;22.01;61.59
43115;BME280;28727;50.068;14.452;2023-06-10T06:21:13;99128.28;;;22.30;61.35
43115;BME280;28727;50.068;14.452;2023-06-10T06:23:45;99127.78;;;22.55;59.68
43115;BME280;28727;50.068;14.452;2023-06-10T06:26:17;99134.00;;;22.55;60.50
43115;BME280;28727;50.068;14.452;2023-06-10T06:28:49;99134.09;;;22.65;60.12
43115;BME280;28727;50.068;14.452;2023-06-10T06:31:21;99133.72;;;22.57;60.07
43115;BME280;28727;50.068;14.452;2023-06-10T06:33:53;99129.41;;;22.34;60.06
43115;BME280;28727;50.068;14.452;2023-06-10T06:36:25;99134.59;;;22.19;60.59
43115;BME280;28727;50.068;14.452;2023-06-10T06:38:57;99131.38;;;22.00;59.75
43115;BME280;28727;50.068;14.452;2023-06-10T06:41:31;99126.59;;;22.02;60.58
43115;BME280;28727;50.068;14.452;2023-06-10T06:44:06;99134.22;;;22.10;59.94
43115;BME280;28727;50.068;14.452;2023-06-10T06:46:42;99133.53;;;22.20;60.23
43115;BME280;28727;50.068;14.452;2023-06-10T06:49:15;99129.09;;;22.09;60.33
43115;BME280;28727;50.068;14.452;2023-06-10T06:51:46;99134.38;;;22.20;60.11
43115;BME280;28727;50.068;14.452;2023-06-10T06:54:18;99137.63;;;22.44;59.35
43115;BME280;28727;50.068;14.452;2023-06-10T06:56:50;99143.13;;;22.76;59.59
43115;BME280;28727;50.068;14.452;2023-06-10T06:59:22;99147.94;;;22.96;57.79
43115;BME280;28727;50.068;14.452;2023-06-10T07:01:54;99147.56;;;22.87;57.65
43115;BME280;28727;50.068;14.452;2023-06-10T07:07:02;99145.63;;;22.61;58.04
43115;BME280;28727;50.068;14.452;2023-06-10T07:09:34;99152.88;;;22.60;58.73
43115;BME280;28727;50.068;14.452;2023-06-10T07:12:06;99154.09;;;22.48;59.06
43115;BME280;28727;50.068;14.452;2023-06-10T07:14:38;99157.31;;;22.28;59.31
43115;BME280;28727;50.068;14.452;2023-06-10T07:17:10;99159.41;;;22.04;59.58
43115;BME280;28727;50.068;14.452;2023-06-10T07:19:42;99157.81;;;21.70;59.83
43115;BME280;28727;50.068;14.452;2023-06-10T07:22:14;99162.59;;;21.51;60.55
43115;BME280;28727;50.068;14.452;2023-06-10T07:24:46;99164.00;;;21.37;61.10
43115;BME280;28727;50.068;14.452;2023-06-10T07:27:18;99165.38;;;21.39;61.54
43115;BME280;28727;50.068;14.452;2023-06-10T07:29:53;99162.94;;;21.71;61.42
43115;BME280;28727;50.068;14.452;2023-06-10T07:32:24;99167.41;;;21.99;60.32
43115;BME280;28727;50.068;14.452;2023-06-10T07:34:56;99166.28;;;22.33;59.77
43115;BME280;28727;50.068;14.452;2023-06-10T07:37:29;99169.34;;;22.42;59.33
43115;BME280;28727;50.068;14.452;2023-06-10T07:40:00;99176.84;;;22.40;58.95
43115;BME280;28727;50.068;14.452;2023-06-10T07:42:35;99172.22;;;22.35;59.39
43115;BME280;28727;50.068;14.452;2023-06-10T07:45:07;99169.72;;;22.51;59.58
43115;BME280;28727;50.068;14.452;2023-06-10T07:47:40;99174.69;;;22.59;59.03
43115;BME280;28727;50.068;14.452;2023-06-10T07:50:15;99175.31;;;22.66;58.86
43115;BME280;28727;50.068;14.452;2023-06-10T07:52:46;99173.28;;;22.34;59.33
43115;BME280;28727;50.068;14.452;2023-06-10T07:55:18;99175.63;;;22.26;59.85
43115;BME280;28727;50.068;14.452;2023-06-10T07:57:53;99171.06;;;22.10;60.50
43115;BME280;28727;50.068;14.452;2023-06-10T08:00:26;99179.22;;;22.15;60.80
43115;BME280;28727;50.068;14.452;2023-06-10T08:02:58;99187.31;;;22.15;60.60
43115;BME280;28727;50.068;14.452;2023-06-10T08:05:30;99184.28;;;22.11;60.57
43115;BME280;28727;50.068;14.452;2023-06-10T08:08:02;99188.97;;;22.21;60.61
43115;BME280;28727;50.068;14.452;2023-06-10T08:10:35;99184.69;;;22.20;60.58
43115;BME280;28727;50.068;14.452;2023-06-10T08:13:08;99185.69;;;22.35;60.72
43115;BME280;28727;50.068;14.452;2023-06-10T08:15:41;99190.84;;;22.37;60.42
43115;BME280;28727;50.068;14.452;2023-06-10T08:18:13;99189.13;;;22.31;60.55
43115;BME280;28727;50.068;14.452;2023-06-10T08:20:45;99200.00;;;22.19;60.74
43115;BME280;28727;50.068;14.452;2023-06-10T08:23:16;99197.25;;;21.97;61.18
43115;BME280;28727;50.068;14.452;2023-06-10T08:25:48;99198.88;;;21.82;62.30
43115;BME280;28727;50.068;14.452;2023-06-10T08:28:22;99199.44;;;21.84;61.77
43115;BME280;28727;50.068;14.452;2023-06-10T08:30:54;99202.28;;;21.77;61.77
43115;BME280;28727;50.068;14.452;2023-06-10T08:33:28;99199.75;;;21.71;62.39
43115;BME280;28727;50.068;14.452;2023-06-10T08:36:06;99200.09;;;21.74;62.14
43115;BME280;28727;50.068;14.452;2023-06-10T08:38:38;99205.28;;;21.81;62.11
43115;BME280;28727;50.068;14.452;2023-06-10T08:41:12;99210.69;;;21.64;61.64
43115;BME280;28727;50.068;14.452;2023-06-10T08:43:50;99207.81;;;21.54;61.85
43115;BME280;28727;50.068;14.452;2023-06-10T08:46:27;99198.88;;;21.48;62.08
43115;BME280;28727;50.068;14.452;2023-06-10T08:49:03;99204.88;;;21.39;62.49
43115;BME280;28727;50.068;14.452;2023-06-10T08:51:40;99205.06;;;21.49;62.48
43115;BME280;28727;50.068;14.452;2023-06-10T08:54:17;99200.06;;;21.41;62.86
43115;BME280;28727;50.068;14.452;2023-06-10T08:56:54;99199.66;;;21.32;63.05
43115;BME280;28727;50.068;14.452;2023-06-10T08:59:26;99210.56;;;21.26;63.42
43115;BME280;28727;50.068;14.452;2023-06-10T09:02:00;99211.03;;;21.22;63.50
43115;BME280;28727;50.068;14.452;2023-06-10T09:04:33;99206.03;;;21.14;64.21
43115;BME280;28727;50.068;14.452;2023-06-10T09:07:06;99206.97;;;21.20;64.93
43115;BME280;28727;50.068;14.452;2023-06-10T09:09:44;99194.84;;;21.34;64.61
43115;BME280;28727;50.068;14.452;2023-06-10T09:12:18;99199.03;;;21.42;64.72
43115;BME280;28727;50.068;14.452;2023-06-10T09:14:50;99198.38;;;21.51;64.94
43115;BME280;28727;50.068;14.452;2023-06-10T09:17:23;99201.94;;;21.74;64.33
43115;BME280;28727;50.068;14.452;2023-06-10T09:19:55;99204.47;;;21.80;63.69
43115;BME280;28727;50.068;14.452;2023-06-10T09:22:28;99203.78;;;21.85;63.20
43115;BME280;28727;50.068;14.452;2023-06-10T09:25:09;99206.78;;;21.88;63.26
43115;BME280;28727;50.068;14.452;2023-06-10T09:27:50;99209.22;;;22.07;63.26
43115;BME280;28727;50.068;14.452;2023-06-10T09:30:25;99208.25;;;22.13;62.53
43115;BME280;28727;50.068;14.452;2023-06-10T09:33:02;99208.97;;;22.25;62.20
43115;BME280;28727;50.068;14.452;2023-06-10T09:35:35;99210.56;;;22.42;61.99
43115;BME280;28727;50.068;14.452;2023-06-10T09:38:07;99211.69;;;22.46;61.67
43115;BME280;28727;50.068;14.452;2023-06-10T09:40:51;99210.63;;;22.48;62.12
43115;BME280;28727;50.068;14.452;2023-06-10T09:43:39;99212.44;;;22.64;61.51
43115;BME280;28727;50.068;14.452;2023-06-10T09:46:19;99214.53;;;22.78;61.54
43115;BME280;28727;50.068;14.452;2023-06-10T09:48:51;99215.56;;;22.72;60.62
43115;BME280;28727;50.068;14.452;2023-06-10T09:51:23;99217.06;;;22.46;60.61
43115;BME280;28727;50.068;14.452;2023-06-10T09:53:56;99209.59;;;22.32;60.67
43115;BME280;28727;50.068;14.452;2023-06-10T09:56:37;99217.09;;;22.30;60.56
43115;BME280;28727;50.068;14.452;2023-06-10T09:59:12;99216.13;;;22.36;61.31
43115;BME280;28727;50.068;14.452;2023-06-10T10:01:54;99219.50;;;22.48;61.32
43115;BME280;28727;50.068;14.452;2023-06-10T10:04:26;99220.75;;;22.62;61.21
43115;BME280;28727;50.068;14.452;2023-06-10T10:07:00;99220.50;;;22.64;60.86
43115;BME280;28727;50.068;14.452;2023-06-10T10:09:32;99216.72;;;22.81;60.74
43115;BME280;28727;50.068;14.452;2023-06-10T10:12:23;99213.56;;;23.11;59.40
43115;BME280;28727;50.068;14.452;2023-06-10T10:14:59;99210.28;;;23.31;59.53
43115;BME280;28727;50.068;14.452;2023-06-10T10:17:32;99207.41;;;23.43;59.58
43115;BME280;28727;50.068;14.452;2023-06-10T10:20:08;99206.16;;;23.50;59.51
43115;BME280;28727;50.068;14.452;2023-06-10T10:22:44;99204.69;;;23.70;58.05
43115;BME280;28727;50.068;14.452;2023-06-10T10:25:23;99198.69;;;23.94;57.67
43115;BME280;28727;50.068;14.452;2023-06-10T10:30:43;99197.72;;;24.11;56.75
43115;BME280;28727;50.068;14.452;2023-06-10T10:33:23;99195.47;;;24.39;55.69
43115;BME280;28727;50.068;14.452;2023-06-10T10:36:00;99192.50;;;24.98;55.39
43115;BME280;28727;50.068;14.452;2023-06-10T10:38:32;99186.38;;;25.43;54.24
43115;BME280;28727;50.068;14.452;2023-06-10T10:41:05;99183.97;;;25.72;52.33
43115;BME280;28727;50.068;14.452;2023-06-10T10:43:38;99179.88;;;25.95;51.39
43115;BME280;28727;50.068;14.452;2023-06-10T10:46:14;99171.72;;;26.25;51.07
43115;BME280;28727;50.068;14.452;2023-06-10T10:48:53;99176.25;;;26.50;50.31
43115;BME280;28727;50.068;14.452;2023-06-10T10:51:25;99179.81;;;26.35;48.81
43115;BME280;28727;50.068;14.452;2023-06-10T10:54:10;99170.75;;;26.65;48.22
43115;BME280;28727;50.068;14.452;2023-06-10T11:05:06;99169.84;;;26.26;48.17
43115;BME280;28727;50.068;14.452;2023-06-10T11:07:55;99168.16;;;26.35;48.86
43115;BME280;28727;50.068;14.452;2023-06-10T11:10:37;99166.84;;;26.32;48.59
43115;BME280;28727;50.068;14.452;2023-06-10T11:13:14;99167.00;;;26.51;49.06
43115;BME280;28727;50.068;14.452;2023-06-10T11:15:49;99154.09;;;26.38;48.85
43115;BME280;28727;50.068;14.452;2023-06-10T11:18:28;99150.50;;;26.47;48.58
43115;BME280;28727;50.068;14.452;2023-06-10T11:21:04;99152.94;;;26.49;48.52
43115;BME280;28727;50.068;14.452;2023-06-10T11:23:41;99146.81;;;26.23;48.41
43115;BME280;28727;50.068;14.452;2023-06-10T11:34:04;99165.88;;;24.60;52.52
43115;BME280;28727;50.068;14.452;2023-06-10T11:36:42;99175.47;;;24.35;52.38
43115;BME280;28727;50.068;14.452;2023-06-10T11:39:17;99166.16;;;24.16;53.17
43115;BME280;28727;50.068;14.452;2023-06-10T11:41:53;99158.19;;;23.89;53.47
43115;BME280;28727;50.068;14.452;2023-06-10T11:44:27;99154.03;;;23.77;54.15
43115;BME280;28727;50.068;14.452;2023-06-10T11:47:00;99147.88;;;23.81;53.95
43115;BME280;28727;50.068;14.452;2023-06-10T11:49:32;99151.19;;;23.93;53.58
43115;BME280;28727;50.068;14.452;2023-06-10T11:52:04;99142.66;;;24.12;53.03
43115;BME280;28727;50.068;14.452;2023-06-10T11:54:38;99143.72;;;24.11;52.87
43115;BME280;28727;50.068;14.452;2023-06-10T11:57:09;99142.06;;;24.04;52.33
43115;BME280;28727;50.068;14.452;2023-06-10T11:59:41;99142.59;;;24.01;52.49
43115;BME280;28727;50.068;14.452;2023-06-10T12:02:17;99130.19;;;24.05;51.96
43115;BME280;28727;50.068;14.452;2023-06-10T12:04:49;99125.66;;;24.16;51.86
43115;BME280;28727;50.068;14.452;2023-06-10T12:07:21;99118.22;;;24.33;51.60
43115;BME280;28727;50.068;14.452;2023-06-10T12:10:00;99119.91;;;24.50;51.05
43115;BME280;28727;50.068;14.452;2023-06-10T12:12:49;99129.38;;;24.52;51.60
43115;BME280;28727;50.068;14.452;2023-06-10T12:15:24;99127.25;;;24.69;51.23
43115;BME280;28727;50.068;14.452;2023-06-10T12:17:57;99133.50;;;24.80;51.41
43115;BME280;28727;50.068;14.452;2023-06-10T12:20:31;99130.06;;;24.90;50.72
43115;BME280;28727;50.068;14.452;2023-06-10T12:23:11;99120.34;;;25.09;50.36
43115;BME280;28727;50.068;14.452;2023-06-10T12:25:51;99119.00;;;25.16;50.26
43115;BME280;28727;50.068;14.452;2023-06-10T12:28:26;99113.59;;;25.32;49.81
43115;BME280;28727;50.068;14.452;2023-06-10T12:31:08;99115.22;;;25.43;49.12
43115;BME280;28727;50.068;14.452;2023-06-10T12:33:40;99111.44;;;25.49;48.99
43115;BME280;28727;50.068;14.452;2023-06-10T12:36:16;99107.91;;;25.28;48.31
43115;BME280;28727;50.068;14.452;2023-06-10T12:38:49;99107.91;;;25.13;48.85
43115;BME280;28727;50.068;14.452;2023-06-10T12:41:22;99100.06;;;25.01;48.53
43115;BME280;28727;50.068;14.452;2023-06-10T12:43:53;99092.50;;;25.13;49.02
43115;BME280;28727;50.068;14.452;2023-06-10T12:46:36;99089.81;;;25.44;48.55
43115;BME280;28727;50.068;14.452;2023-06-10T12:49:07;99088.72;;;25.60;48.84
43115;BME280;28727;50.068;14.452;2023-06-10T12:51:39;99080.56;;;25.80;47.53
43115;BME280;28727;50.068;14.452;2023-06-10T12:54:12;99084.81;;;26.06;47.33
43115;BME280;28727;50.068;14.452;2023-06-10T12:56:45;99081.25;;;26.21;46.04
43115;BME280;28727;50.068;14.452;2023-06-10T12:59:16;99078.53;;;26.31;46.26
43115;BME280;28727;50.068;14.452;2023-06-10T13:01:52;99079.91;;;26.24;46.00
43115;BME280;28727;50.068;14.452;2023-06-10T13:04:28;99066.06;;;26.30;45.67
43115;BME280;28727;50.068;14.452;2023-06-10T13:06:59;99074.22;;;26.20;44.61
43115;BME280;28727;50.068;14.452;2023-06-10T13:09:32;99057.19;;;26.09;45.15
43115;BME280;28727;50.068;14.452;2023-06-10T13:12:04;99067.00;;;25.95;45.46
43115;BME280;28727;50.068;14.452;2023-06-10T13:14:37;99054.78;;;26.03;45.94
43115;BME280;28727;50.068;14.452;2023-06-10T13:17:09;99057.47;;;26.08;45.81
43115;BME280;28727;50.068;14.452;2023-06-10T13:19:41;99051.19;;;26.18;45.35
43115;BME280;28727;50.068;14.452;2023-06-10T13:22:12;99057.41;;;26.28;43.23
43115;BME280;28727;50.068;14.452;2023-06-10T13:24:46;99068.75;;;26.35;43.85
43115;BME280;28727;50.068;14.452;2023-06-10T13:27:21;99064.19;;;26.31;45.11
43115;BME280;28727;50.068;14.452;2023-06-10T13:29:53;99058.75;;;26.31;45.49
43115;BME280;28727;50.068;14.452;2023-06-10T13:32:27;99060.69;;;26.15;45.72
43115;BME280;28727;50.068;14.452;2023-06-10T13:34:59;99066.94;;;26.05;45.82
43115;BME280;28727;50.068;14.452;2023-06-10T13:37:35;99072.44;;;25.85;46.14
43115;BME280;28727;50.068;14.452;2023-06-10T13:40:08;99075.97;;;25.71;46.61
43115;BME280;28727;50.068;14.452;2023-06-10T13:42:41;99077.88;;;25.55;47.09
43115;BME280;28727;50.068;14.452;2023-06-10T13:45:14;99081.69;;;25.39;47.95
43115;BME280;28727;50.068;14.452;2023-06-10T13:47:46;99072.75;;;25.23;47.76